createdAt,value
2023-02-08T00:01:50.646Z,34.70
2023-02-08T00:04:17.387Z,34.70
2023-02-08T00:06:44.185Z,34.90
2023-02-08T00:09:11.086Z,34.90
2023-02-08T00:11:37.861Z,35.00
2023-02-08T00:14:04.799Z,35.10
2023-02-08T00:16:31.550Z,35.10
2023-02-08T00:18:58.299Z,35.10
2023-02-08T00:21:25.050Z,35.30
2023-02-08T00:23:51.790Z,35.70
2023-02-08T00:26:19.837Z,35.70
2023-02-08T00:28:46.574Z,36.10
2023-02-08T00:31:13.426Z,36.20
2023-02-08T00:33:40.255Z,36.20
2023-02-08T00:36:08.984Z,36.40
2023-02-08T00:38:35.841Z,36.30
2023-02-08T00:41:02.848Z,36.50
2023-02-08T00:43:29.682Z,36.70
2023-02-08T00:45:57.929Z,36.80
2023-02-08T00:48:25.314Z,36.50
2023-02-08T00:51:18.416Z,36.30
2023-02-08T00:53:46.048Z,36.60
2023-02-08T00:56:15.065Z,36.70
2023-02-08T00:58:43.246Z,36.50
2023-02-08T01:01:10.810Z,36.70
2023-02-08T01:03:39.857Z,36.70
2023-02-08T01:06:09.485Z,36.80
2023-02-08T01:08:36.610Z,36.80
2023-02-08T01:11:13.196Z,36.90
2023-02-08T01:13:40.054Z,37.10
2023-02-08T01:16:13.200Z,37.00
2023-02-08T01:18:41.789Z,36.90
2023-02-08T01:21:11.993Z,37.00
2023-02-08T01:23:39.625Z,36.70
2023-02-08T01:26:07.598Z,36.60
2023-02-08T01:28:34.920Z,36.80
2023-02-08T01:31:09.431Z,37.10
2023-02-08T01:33:36.400Z,37.10
2023-02-08T01:36:03.975Z,36.90
2023-02-08T01:38:31.129Z,37.00
2023-02-08T01:40:57.865Z,37.50
2023-02-08T01:43:31.384Z,37.70
2023-02-08T01:45:58.264Z,38.00
2023-02-08T01:48:40.646Z,38.10
2023-02-08T01:51:25.725Z,38.30
2023-02-08T01:54:04.516Z,38.50
2023-02-08T01:56:37.767Z,38.70
2023-02-08T01:59:12.701Z,39.00
2023-02-08T02:01:42.216Z,39.10
2023-02-08T02:04:09.156Z,39.10
2023-02-08T02:06:40.369Z,38.90
2023-02-08T02:09:20.118Z,39.00
2023-02-08T02:11:46.963Z,39.10
2023-02-08T02:14:14.716Z,39.40
2023-02-08T02:16:41.793Z,39.30
2023-02-08T02:19:23.279Z,39.30
2023-02-08T02:22:01.351Z,39.30
2023-02-08T02:24:53.121Z,39.40
2023-02-08T02:27:49.024Z,39.40
2023-02-08T02:30:37.906Z,40.20
2023-02-08T02:33:35.312Z,39.60
2023-02-08T02:36:08.925Z,39.70
2023-02-08T02:38:54.574Z,39.90
2023-02-08T02:42:16.246Z,39.80
2023-02-08T02:44:51.718Z,40.20
2023-02-08T02:47:37.197Z,40.40
2023-02-08T02:50:17.826Z,40.20
2023-02-08T02:52:59.341Z,40.30
2023-02-08T02:55:27.979Z,40.40
2023-02-08T02:57:57.982Z,40.50
2023-02-08T03:00:27.810Z,40.60
2023-02-08T03:02:55.677Z,40.60
2023-02-08T03:05:22.684Z,40.70
2023-02-08T03:08:08.297Z,40.90
2023-02-08T03:11:13.993Z,40.90
2023-02-08T03:13:46.260Z,41.30
2023-02-08T03:16:47.256Z,41.50
2023-02-08T03:19:35.242Z,41.90
2023-02-08T03:22:05.419Z,41.90
2023-02-08T03:25:00.917Z,41.80
2023-02-08T03:27:33.112Z,42.10
2023-02-08T03:30:20.063Z,42.20
2023-02-08T03:33:12.638Z,42.60
2023-02-08T03:36:06.172Z,42.30
2023-02-08T03:38:41.415Z,42.80
2023-02-08T03:41:14.458Z,41.90
2023-02-08T03:43:58.034Z,42.10
2023-02-08T03:46:53.448Z,42.30
2023-02-08T03:49:29.214Z,42.40
2023-02-08T03:51:59.576Z,42.80
2023-02-08T03:54:30.252Z,43.10
2023-02-08T03:57:09.428Z,42.80
2023-02-08T03:59:43.200Z,42.80
2023-02-08T04:02:20.746Z,42.90
2023-02-08T04:04:50.312Z,43.00
2023-02-08T04:07:18.885Z,43.10
2023-02-08T04:09:45.823Z,43.60
2023-02-08T04:12:12.860Z,43.80
2023-02-08T04:14:39.582Z,43.70
2023-02-08T04:17:06.655Z,43.80
2023-02-08T04:19:33.455Z,43.80
2023-02-08T04:22:00.335Z,44.00
2023-02-08T04:24:27.107Z,44.30
2023-02-08T04:26:53.883Z,44.10
2023-02-08T04:29:20.585Z,44.20
2023-02-08T04:31:47.386Z,44.10
2023-02-08T04:34:14.168Z,44.10
2023-02-08T04:36:40.915Z,44.20
2023-02-08T04:39:07.702Z,44.30
2023-02-08T04:41:34.430Z,44.30
2023-02-08T04:44:01.177Z,44.30
2023-02-08T04:46:27.978Z,44.40
2023-02-08T04:48:54.721Z,44.90
2023-02-08T04:51:21.464Z,44.40
2023-02-08T04:53:48.223Z,45.00
2023-02-08T04:56:14.952Z,44.50
2023-02-08T04:58:41.659Z,44.60
2023-02-08T05:01:10.756Z,44.70
2023-02-08T05:03:37.602Z,44.70
2023-02-08T05:06:04.436Z,45.00
2023-02-08T05:08:31.194Z,44.90
2023-02-08T05:10:57.907Z,44.70
2023-02-08T05:13:24.690Z,44.80
2023-02-08T05:15:51.551Z,44.60
2023-02-08T05:18:18.350Z,44.50
2023-02-08T05:20:45.237Z,44.00
2023-02-08T05:23:12.154Z,43.90
2023-02-08T05:25:39.754Z,44.00
2023-02-08T05:28:06.664Z,44.60
2023-02-08T05:30:33.436Z,44.10
2023-02-08T05:33:00.196Z,44.40
2023-02-08T05:35:26.940Z,45.00
2023-02-08T05:37:53.678Z,45.10
2023-02-08T05:40:20.414Z,45.30
2023-02-08T05:42:48.090Z,45.60
2023-02-08T05:45:15.051Z,45.60
2023-02-08T05:47:42.177Z,45.60
2023-02-08T05:50:09.615Z,45.60
2023-02-08T05:52:36.438Z,46.10
2023-02-08T05:55:03.895Z,46.40
2023-02-08T05:57:31.954Z,46.20
2023-02-08T05:59:59.431Z,46.40
2023-02-08T06:02:26.243Z,46.90
2023-02-08T06:04:53.005Z,47.50
2023-02-08T06:07:19.764Z,47.00
2023-02-08T06:09:48.454Z,47.20
2023-02-08T06:12:15.517Z,47.30
2023-02-08T06:14:42.223Z,47.10
2023-02-08T06:17:09.124Z,47.20
2023-02-08T06:19:35.906Z,47.40
2023-02-08T06:22:02.669Z,47.30
2023-02-08T06:24:29.868Z,47.50
2023-02-08T06:26:57.093Z,47.30
2023-02-08T06:29:23.953Z,47.50
2023-02-08T06:31:50.793Z,47.50
2023-02-08T06:34:17.689Z,47.50
2023-02-08T06:36:45.759Z,47.60
2023-02-08T06:39:12.750Z,47.60
2023-02-08T06:41:39.546Z,47.50
2023-02-08T06:44:06.583Z,47.50
2023-02-08T06:46:33.465Z,47.60
2023-02-08T06:49:00.480Z,48.30
2023-02-08T06:51:27.970Z,47.70
2023-02-08T06:53:55.099Z,48.40
2023-02-08T06:56:21.849Z,48.10
2023-02-08T06:58:50.646Z,47.80
2023-02-08T07:01:17.392Z,47.90
2023-02-08T07:03:44.279Z,47.90
2023-02-08T07:06:16.542Z,47.80
2023-02-08T07:08:43.826Z,48.00
2023-02-08T07:11:13.420Z,48.10
2023-02-08T07:13:40.435Z,47.90
2023-02-08T07:16:08.366Z,48.20
2023-02-08T07:18:36.137Z,48.10
2023-02-08T07:21:03.605Z,48.40
2023-02-08T07:23:30.401Z,48.40
2023-02-08T07:26:05.549Z,48.40
2023-02-08T07:28:32.785Z,48.30
2023-02-08T07:30:59.904Z,48.30
2023-02-08T07:33:26.807Z,48.30
2023-02-08T07:35:53.542Z,48.50
2023-02-08T07:38:20.944Z,47.90
2023-02-08T07:40:47.948Z,47.80
2023-02-08T07:43:14.712Z,47.10
2023-02-08T07:45:41.966Z,46.80
2023-02-08T07:48:08.891Z,45.90
2023-02-08T07:50:35.634Z,45.60
2023-02-08T07:53:02.443Z,45.20
2023-02-08T07:55:29.320Z,43.40
2023-02-08T07:57:57.349Z,42.50
2023-02-08T08:00:24.837Z,42.50
2023-02-08T08:02:51.689Z,41.60
2023-02-08T08:05:18.565Z,40.90
2023-02-08T08:07:45.358Z,40.90
2023-02-08T08:10:12.068Z,39.90
2023-02-08T08:12:39.021Z,40.10
2023-02-08T08:15:06.262Z,39.90
2023-02-08T08:17:33.010Z,39.60
2023-02-08T08:19:59.752Z,39.70
2023-02-08T08:22:26.707Z,40.60
2023-02-08T08:24:53.819Z,39.00
2023-02-08T08:27:20.608Z,38.80
2023-02-08T08:29:47.294Z,38.10
2023-02-08T08:32:13.973Z,38.40
2023-02-08T08:34:40.767Z,37.60
2023-02-08T08:37:07.515Z,37.70
2023-02-08T08:39:34.245Z,37.70
2023-02-08T08:42:01.473Z,38.30
2023-02-08T08:44:28.438Z,37.60
2023-02-08T08:46:56.815Z,38.00
2023-02-08T08:49:24.770Z,38.30
2023-02-08T08:51:51.541Z,38.40
2023-02-08T08:54:18.851Z,37.60
2023-02-08T08:56:45.620Z,37.00
2023-02-08T08:59:12.473Z,37.20
2023-02-08T09:01:40.120Z,37.80
2023-02-08T09:04:06.960Z,37.70
2023-02-08T09:06:34.982Z,38.10
2023-02-08T09:09:02.711Z,38.30
2023-02-08T09:11:29.524Z,37.80
2023-02-08T09:13:56.391Z,38.40
2023-02-08T09:16:24.839Z,38.10
2023-02-08T09:18:51.694Z,38.40
2023-02-08T09:21:21.460Z,38.70
2023-02-08T09:23:48.587Z,38.60
2023-02-08T09:26:17.734Z,38.00
2023-02-08T09:28:44.960Z,38.10
2023-02-08T09:31:18.398Z,38.90
2023-02-08T09:33:45.124Z,39.50
2023-02-08T09:36:12.255Z,38.90
2023-02-08T09:38:39.589Z,38.90
2023-02-08T09:41:09.089Z,39.60
2023-02-08T09:43:58.702Z,39.80
2023-02-08T09:46:29.838Z,39.40
2023-02-08T09:49:00.766Z,38.10
2023-02-08T09:51:27.478Z,37.90
2023-02-08T09:54:02.919Z,38.00
2023-02-08T09:56:34.331Z,38.10
2023-02-08T09:59:01.942Z,37.40
2023-02-08T10:01:32.369Z,38.10
2023-02-08T10:04:13.605Z,37.50
2023-02-08T10:06:40.956Z,36.50
2023-02-08T10:09:14.463Z,37.90
2023-02-08T10:11:50.368Z,37.40
2023-02-08T10:14:39.088Z,37.30
2023-02-08T10:17:25.364Z,37.90
2023-02-08T10:20:17.014Z,37.70
2023-02-08T10:23:02.364Z,36.10
2023-02-08T10:26:03.305Z,36.20
2023-02-08T10:28:57.720Z,36.00
2023-02-08T10:31:42.090Z,35.90
2023-02-08T10:34:20.467Z,35.70
2023-02-08T10:36:47.434Z,36.70
2023-02-08T10:39:20.958Z,37.80
2023-02-08T10:41:47.914Z,36.50
2023-02-08T10:44:32.996Z,36.10
2023-02-08T10:47:27.942Z,37.20
2023-02-08T10:50:16.981Z,36.30
2023-02-08T10:52:43.789Z,37.10
2023-02-08T10:55:19.186Z,37.20
2023-02-08T10:57:48.487Z,36.90
2023-02-08T11:00:26.923Z,35.70
2023-02-08T11:02:55.788Z,37.40
2023-02-08T11:05:36.666Z,38.30
2023-02-08T11:08:17.733Z,38.80
2023-02-08T11:10:56.460Z,39.50
2023-02-08T11:13:24.258Z,39.10
2023-02-08T11:15:51.862Z,39.70
2023-02-08T11:18:35.579Z,39.80
2023-02-08T11:21:36.591Z,40.00
2023-02-08T11:24:15.684Z,39.90
2023-02-08T11:26:43.490Z,40.40
2023-02-08T11:29:17.674Z,40.00
2023-02-08T11:32:02.441Z,39.40
2023-02-08T11:34:34.992Z,39.20
2023-02-08T11:37:04.306Z,39.20
2023-02-08T11:39:42.030Z,39.10
2023-02-08T11:42:23.662Z,38.80
2023-02-08T11:44:51.746Z,38.90
2023-02-08T11:47:25.842Z,38.70
2023-02-08T11:49:55.928Z,38.90
2023-02-08T11:52:27.083Z,38.90
2023-02-08T11:54:55.639Z,39.00
2023-02-08T11:57:23.765Z,39.90
2023-02-08T12:00:10.076Z,40.20
2023-02-08T12:02:39.286Z,39.90
2023-02-08T12:05:14.878Z,40.50
2023-02-08T12:08:26.690Z,39.90
2023-02-08T12:10:56.119Z,40.00
2023-02-08T12:13:44.185Z,39.80
2023-02-08T12:16:34.318Z,40.40
2023-02-08T12:19:23.558Z,40.30
2023-02-08T12:22:01.358Z,40.00
2023-02-08T12:24:46.007Z,39.50
2023-02-08T12:27:31.055Z,39.20
2023-02-08T12:30:19.248Z,39.00
2023-02-08T12:33:33.634Z,39.70
2023-02-08T12:36:26.770Z,39.30
2023-02-08T12:39:31.094Z,39.50
2023-02-08T12:42:13.182Z,39.60
2023-02-08T12:45:33.085Z,40.00
2023-02-08T12:48:06.087Z,39.10
2023-02-08T12:50:43.326Z,39.70
2023-02-08T12:53:31.907Z,40.00
2023-02-08T12:56:07.927Z,40.70
2023-02-08T12:58:55.051Z,40.60
2023-02-08T13:01:29.767Z,39.80
2023-02-08T13:04:09.266Z,40.40
2023-02-08T13:06:42.724Z,38.80
2023-02-08T13:09:35.643Z,38.40
2023-02-08T13:12:06.326Z,38.20
2023-02-08T13:14:57.648Z,38.30
2023-02-08T13:17:31.567Z,37.50
2023-02-08T13:20:04.341Z,37.50
2023-02-08T13:22:35.770Z,37.10
2023-02-08T13:25:08.447Z,37.40
2023-02-08T13:27:35.911Z,37.20
2023-02-08T13:30:03.912Z,37.10
2023-02-08T13:32:44.302Z,37.60
2023-02-08T13:35:19.240Z,37.00
2023-02-08T13:38:02.000Z,37.20
2023-02-08T13:40:32.026Z,36.90
2023-02-08T13:43:04.780Z,37.00
2023-02-08T13:45:44.219Z,37.30
2023-02-08T13:48:14.302Z,37.50
2023-02-08T13:50:56.859Z,37.80
2023-02-08T13:53:38.769Z,37.60
2023-02-08T13:56:10.987Z,37.80
2023-02-08T13:58:48.123Z,38.20
2023-02-08T14:01:24.224Z,37.50
2023-02-08T14:04:09.952Z,37.70
2023-02-08T14:06:55.508Z,38.20
2023-02-08T14:09:47.557Z,38.30
2023-02-08T14:12:25.974Z,38.20
2023-02-08T14:15:30.668Z,38.40
2023-02-08T14:17:59.940Z,38.90
2023-02-08T14:20:41.027Z,39.00
2023-02-08T14:23:31.067Z,39.10
2023-02-08T14:26:03.061Z,39.60
2023-02-08T14:28:38.521Z,39.00
2023-02-08T14:31:08.649Z,38.90
2023-02-08T14:33:38.447Z,39.40
2023-02-08T14:36:35.367Z,39.30
2023-02-08T14:39:23.104Z,39.70
2023-02-08T14:42:13.998Z,40.20
2023-02-08T14:44:48.858Z,40.10
2023-02-08T14:47:24.532Z,39.90
2023-02-08T14:50:11.522Z,39.50
2023-02-08T14:52:39.316Z,39.80
2023-02-08T14:55:27.588Z,39.30
2023-02-08T14:58:02.086Z,38.90
2023-02-08T15:00:38.245Z,39.40
2023-02-08T15:03:12.433Z,40.00
2023-02-08T15:05:55.473Z,40.10
2023-02-08T15:08:22.420Z,39.80
2023-02-08T15:10:49.354Z,40.60
2023-02-08T15:13:24.350Z,40.10
2023-02-08T15:15:54.951Z,40.10
2023-02-08T15:18:30.828Z,40.60
2023-02-08T15:21:07.101Z,39.40
2023-02-08T15:23:33.959Z,39.60
2023-02-08T15:26:06.431Z,39.90
2023-02-08T15:28:36.763Z,40.20
2023-02-08T15:31:06.748Z,39.70
2023-02-08T15:33:36.972Z,40.10
2023-02-08T15:36:13.963Z,40.20
2023-02-08T15:38:44.880Z,40.20
2023-02-08T15:41:14.535Z,40.20
2023-02-08T15:43:42.593Z,40.00
2023-02-08T15:46:24.765Z,40.20
2023-02-08T15:48:53.074Z,40.20
2023-02-08T15:51:23.051Z,40.40
2023-02-08T15:53:53.516Z,40.80
2023-02-08T15:56:39.509Z,41.10
2023-02-08T15:59:20.033Z,41.00
2023-02-08T16:01:47.913Z,41.00
2023-02-08T16:04:14.718Z,40.90
2023-02-08T16:06:53.305Z,41.00
2023-02-08T16:09:27.448Z,41.20
2023-02-08T16:11:57.946Z,41.40
2023-02-08T16:14:29.318Z,41.30
2023-02-08T16:16:58.605Z,41.20
2023-02-08T16:19:31.682Z,41.50
2023-02-08T16:22:25.581Z,41.90
2023-02-08T16:24:52.546Z,41.80
2023-02-08T16:27:29.075Z,41.90
2023-02-08T16:29:56.533Z,42.20
2023-02-08T16:32:26.089Z,42.10
2023-02-08T16:34:53.115Z,42.20
2023-02-08T16:37:28.914Z,42.70
2023-02-08T16:39:59.543Z,42.90
2023-02-08T16:42:29.370Z,43.20
2023-02-08T16:45:08.017Z,43.30
2023-02-08T16:48:04.223Z,43.10
2023-02-08T16:50:40.036Z,43.10
2023-02-08T16:53:06.825Z,43.70
2023-02-08T16:55:36.719Z,43.10
2023-02-08T16:58:03.493Z,43.10
2023-02-08T17:00:32.952Z,43.00
2023-02-08T17:03:00.625Z,43.30
2023-02-08T17:05:32.284Z,43.10
2023-02-08T17:07:59.820Z,43.20
2023-02-08T17:10:30.478Z,43.50
2023-02-08T17:13:13.255Z,43.30
2023-02-08T17:15:45.295Z,43.20
2023-02-08T17:18:13.466Z,43.50
2023-02-08T17:20:40.377Z,43.50
2023-02-08T17:23:07.178Z,43.40
2023-02-08T17:25:34.941Z,43.30
2023-02-08T17:28:06.043Z,42.80
2023-02-08T17:30:38.895Z,42.60
2023-02-08T17:33:10.099Z,41.80
2023-02-08T17:35:38.244Z,41.80
2023-02-08T17:38:05.854Z,41.80
2023-02-08T17:40:35.451Z,41.80
2023-02-08T17:43:03.580Z,42.00
2023-02-08T17:45:30.774Z,42.00
2023-02-08T17:48:00.140Z,41.80
2023-02-08T17:50:27.145Z,41.70
2023-02-08T17:52:54.209Z,41.60
2023-02-08T17:55:21.371Z,41.40
2023-02-08T17:57:48.215Z,41.30
2023-02-08T18:00:18.482Z,41.40
2023-02-08T18:02:53.159Z,41.80
2023-02-08T18:05:22.780Z,41.60
2023-02-08T18:07:50.863Z,41.80
2023-02-08T18:10:18.148Z,41.60
2023-02-08T18:12:45.376Z,41.80
2023-02-08T18:15:14.742Z,41.50
2023-02-08T18:17:42.441Z,41.50
2023-02-08T18:20:10.838Z,41.70
2023-02-08T18:22:38.124Z,41.80
2023-02-08T18:25:05.780Z,41.70
2023-02-08T18:27:32.612Z,42.60
2023-02-08T18:29:59.723Z,41.50
2023-02-08T18:32:28.156Z,41.40
2023-02-08T18:34:56.090Z,41.50
2023-02-08T18:37:23.493Z,41.40
2023-02-08T18:39:51.410Z,41.50
2023-02-08T18:42:18.647Z,41.60
2023-02-08T18:44:45.603Z,41.50
2023-02-08T18:47:12.692Z,41.60
2023-02-08T18:49:42.277Z,41.60
2023-02-08T18:52:13.740Z,41.60
2023-02-08T18:54:40.804Z,41.80
2023-02-08T18:57:10.716Z,41.70
2023-02-08T18:59:38.333Z,41.30
2023-02-08T19:02:07.229Z,41.20
2023-02-08T19:04:39.222Z,41.10
2023-02-08T19:07:07.158Z,41.00
2023-02-08T19:09:38.149Z,41.10
2023-02-08T19:12:05.821Z,41.60
2023-02-08T19:14:33.315Z,41.00
2023-02-08T19:17:00.673Z,41.20
2023-02-08T19:19:27.512Z,41.30
2023-02-08T19:21:54.326Z,41.50
2023-02-08T19:24:21.170Z,41.80
2023-02-08T19:26:48.220Z,42.00
2023-02-08T19:29:19.909Z,42.20
2023-02-08T19:31:47.732Z,41.80
2023-02-08T19:34:15.498Z,41.80
2023-02-08T19:36:51.645Z,41.80
2023-02-08T19:39:24.940Z,42.10
2023-02-08T19:41:53.115Z,42.10
2023-02-08T19:44:21.292Z,42.30
2023-02-08T19:46:53.057Z,42.20
2023-02-08T19:49:21.080Z,42.40
2023-02-08T19:51:48.264Z,42.60
2023-02-08T19:54:17.852Z,42.60
2023-02-08T19:56:45.505Z,42.80
2023-02-08T19:59:19.296Z,42.70
2023-02-08T20:01:46.633Z,42.80
2023-02-08T20:04:13.732Z,42.60
2023-02-08T20:06:40.858Z,42.60
2023-02-08T20:09:08.052Z,42.80
2023-02-08T20:11:45.132Z,42.50
2023-02-08T20:14:18.547Z,42.50
2023-02-08T20:16:45.249Z,42.30
2023-02-08T20:19:13.249Z,42.20
2023-02-08T20:21:40.957Z,42.50
2023-02-08T20:24:09.850Z,41.80
2023-02-08T20:26:40.419Z,41.80
2023-02-08T20:29:08.563Z,42.60
2023-02-08T20:31:37.188Z,42.60
2023-02-08T20:34:06.776Z,42.10
2023-02-08T20:36:40.685Z,42.00
2023-02-08T20:39:11.090Z,41.60
2023-02-08T20:41:38.448Z,41.60
2023-02-08T20:44:05.555Z,41.50
2023-02-08T20:46:34.880Z,41.40
2023-02-08T20:49:04.276Z,41.40
2023-02-08T20:51:31.439Z,41.60
2023-02-08T20:54:00.265Z,41.20
2023-02-08T20:56:30.332Z,41.60
2023-02-08T20:58:57.673Z,41.50
2023-02-08T21:01:27.587Z,41.40
2023-02-08T21:03:56.706Z,41.60
2023-02-08T21:06:29.560Z,41.80
2023-02-08T21:09:01.914Z,41.80
2023-02-08T21:11:30.959Z,41.90
2023-02-08T21:13:58.221Z,41.90
2023-02-08T21:16:25.433Z,41.70
2023-02-08T21:18:52.516Z,41.60
2023-02-08T21:21:20.792Z,41.90
2023-02-08T21:23:47.635Z,42.00
2023-02-08T21:26:17.607Z,41.70
2023-02-08T21:28:45.482Z,42.00
2023-02-08T21:31:20.039Z,42.00
2023-02-08T21:33:47.061Z,42.20
2023-02-08T21:36:16.522Z,42.30
2023-02-08T21:38:43.920Z,42.40
2023-02-08T21:41:13.862Z,42.10
2023-02-08T21:43:40.778Z,42.00
2023-02-08T21:46:08.930Z,42.20
2023-02-08T21:48:55.401Z,42.40
2023-02-08T21:51:42.395Z,42.40
2023-02-08T21:54:31.418Z,42.60
2023-02-08T21:56:59.461Z,42.80
2023-02-08T21:59:28.465Z,42.90
2023-02-08T22:01:55.356Z,42.90
2023-02-08T22:04:22.214Z,42.50
2023-02-08T22:06:49.154Z,42.50
2023-02-08T22:09:17.102Z,42.60
2023-02-08T22:11:43.990Z,42.50
2023-02-08T22:14:14.137Z,42.80
2023-02-08T22:16:41.098Z,42.80
2023-02-08T22:19:08.444Z,42.80
2023-02-08T22:21:35.264Z,42.70
2023-02-08T22:24:02.106Z,42.80
2023-02-08T22:26:28.918Z,42.80
2023-02-08T22:28:55.887Z,42.80
2023-02-08T22:31:23.088Z,42.80
2023-02-08T22:33:53.374Z,42.80
2023-02-08T22:36:20.505Z,43.50
2023-02-08T22:38:47.348Z,43.00
2023-02-08T22:41:16.042Z,43.00
2023-02-08T22:43:43.173Z,43.00
2023-02-08T22:46:09.975Z,43.00
2023-02-08T22:48:37.221Z,43.20
2023-02-08T22:51:15.819Z,43.40
2023-02-08T22:53:42.948Z,43.50
2023-02-08T22:56:09.792Z,43.60
2023-02-08T22:58:36.536Z,43.70
2023-02-08T23:01:03.340Z,43.80
2023-02-08T23:03:39.278Z,44.30
2023-02-08T23:06:08.124Z,43.50
2023-02-08T23:08:36.544Z,43.60
2023-02-08T23:11:05.805Z,43.50
2023-02-08T23:13:33.532Z,43.50
2023-02-08T23:16:00.353Z,43.50
2023-02-08T23:18:27.151Z,43.70
2023-02-08T23:20:54.602Z,43.70
2023-02-08T23:23:21.560Z,43.60
2023-02-08T23:25:48.612Z,44.50
2023-02-08T23:28:15.750Z,43.80
2023-02-08T23:30:43.767Z,43.90
2023-02-08T23:33:10.803Z,44.00
2023-02-08T23:35:40.756Z,44.10
2023-02-08T23:38:08.494Z,44.00
2023-02-08T23:40:35.338Z,43.90
2023-02-08T23:43:02.189Z,44.00
2023-02-08T23:45:28.961Z,44.00
2023-02-08T23:47:55.744Z,44.10
2023-02-08T23:50:22.514Z,45.10
2023-02-08T23:52:49.274Z,44.90
2023-02-08T23:55:15.994Z,45.00
2023-02-08T23:57:42.855Z,45.10
